Time;durP1;ratioP1;P1;durP2;ratioP2;P2;SDS_P1;SDS_P2;PMS_P1;PMS_P2;Temp;Humidity;BMP_temperature;BMP_pressure;BME280_temperature;BME280_humidity;BME280_pressure;Samples;Min_cycle;Max_cycle;Signal;HPM_P1;HPM_P2
2022/07/15 00:00:38;;;;;;;4.47;2.13;;;;;;;16.49;59.16;100437.50;4974763;28;20246;-74
2022/07/15 00:03:03;;;;;;;5.33;1.90;;;;;;;16.37;59.32;100434.03;4977414;28;20234;-74
2022/07/15 00:05:29;;;;;;;4.13;1.93;;;;;;;16.39;59.89;100440.78;4984560;28;20617;-75
2022/07/15 00:07:54;;;;;;;4.43;1.77;;;;;;;16.24;60.47;100439.31;4990018;28;20250;-75
2022/07/15 00:10:23;;;;;;;2.50;1.83;;;;;;;16.11;60.65;100436.75;4976020;28;20191;-75
2022/07/15 00:12:54;;;;;;;3.00;1.90;;;;;;;15.99;61.68;100441.09;5000853;28;20190;-74
2022/07/15 00:15:24;;;;;;;6.37;2.37;;;;;;;15.90;62.26;100440.00;4985571;28;20168;-75
2022/07/15 00:17:50;;;;;;;3.40;2.10;;;;;;;15.90;61.93;100436.53;4964852;28;20185;-75
2022/07/15 00:20:16;;;;;;;2.77;2.20;;;;;;;15.88;62.21;100431.47;4957056;28;20173;-75
2022/07/15 00:22:43;;;;;;;2.67;2.03;;;;;;;15.80;62.11;100424.22;4983307;28;20671;-77
2022/07/15 00:25:10;;;;;;;6.30;2.93;;;;;;;15.69;63.06;100429.34;4971378;28;20187;-75
2022/07/15 00:27:36;;;;;;;4.27;2.07;;;;;;;15.63;63.57;100440.97;4966519;28;20191;-76
2022/07/15 00:30:04;;;;;;;5.90;2.60;;;;;;;15.54;64.33;100435.59;4975174;28;20199;-75
2022/07/15 00:32:29;;;;;;;7.90;2.40;;;;;;;15.53;64.70;100442.56;4964875;28;20216;-75
2022/07/15 00:34:55;;;;;;;4.43;2.27;;;;;;;15.47;64.81;100436.03;4969588;28;20543;-75
2022/07/15 00:37:20;;;;;;;2.80;2.03;;;;;;;15.26;65.71;100438.34;4970820;28;20191;-75
2022/07/15 00:39:46;;;;;;;5.27;2.43;;;;;;;15.25;65.55;100436.69;4975031;28;20186;-75
2022/07/15 00:42:43;;;;;;;3.90;2.17;;;;;;;15.00;66.71;100443.53;4966461;28;20254;-74
2022/07/15 00:44:58;;;;;;;4.77;2.33;;;;;;;14.97;68.02;100436.00;4975273;28;20631;-74
2022/07/15 00:47:23;;;;;;;4.50;2.60;;;;;;;15.00;68.18;100442.72;4975581;28;20222;-74
2022/07/15 00:49:48;;;;;;;3.63;2.10;;;;;;;14.93;68.62;100446.66;4974914;28;20216;-74
2022/07/15 00:52:14;;;;;;;6.87;2.23;;;;;;;14.95;68.39;100447.38;4965523;28;20219;-74
2022/07/15 00:54:39;;;;;;;3.27;2.03;;;;;;;15.00;68.02;100446.13;4975152;28;20192;-74
2022/07/15 00:57:05;;;;;;;6.10;2.13;;;;;;;15.07;67.64;100453.50;4966499;28;20219;-74
2022/07/15 00:59:32;;;;;;;2.80;2.07;;;;;;;15.12;67.62;100456.59;4969152;28;20184;-73
2022/07/15 01:01:58;;;;;;;7.17;2.77;;;;;;;15.06;68.04;100451.81;4963204;28;20311;-74
2022/07/15 01:04:23;;;;;;;3.37;2.00;;;;;;;15.00;68.14;100448.72;4982466;28;20278;-74
2022/07/15 01:06:49;;;;;;;8.33;2.20;;;;;;;14.97;68.94;100446.34;4989741;28;20735;-75
2022/07/15 01:09:15;;;;;;;4.83;1.97;;;;;;;14.93;69.29;100439.69;4970050;28;20504;-74
2022/07/15 01:11:40;;;;;;;4.53;2.10;;;;;;;14.90;70.04;100439.91;4961837;28;20239;-75
2022/07/15 01:14:08;;;;;;;4.27;1.93;;;;;;;14.92;69.81;100450.16;4977931;28;20180;-75
2022/07/15 01:16:33;;;;;;;3.50;1.87;;;;;;;14.89;70.53;100443.44;4975157;28;20971;-74
2022/07/15 01:18:59;;;;;;;4.20;2.30;;;;;;;14.88;70.60;100444.38;4989392;28;20207;-74
2022/07/15 01:21:24;;;;;;;4.00;1.83;;;;;;;14.81;71.87;100445.69;4975499;28;20666;-74
2022/07/15 01:23:49;;;;;;;3.20;2.10;;;;;;;14.74;71.96;100447.06;4970457;28;20231;-73
2022/07/15 01:26:15;;;;;;;4.47;2.20;;;;;;;14.70;71.85;100449.03;4967793;28;20234;-73
2022/07/15 01:28:42;;;;;;;5.53;2.10;;;;;;;14.74;72.08;100447.88;4974736;28;20527;-73
2022/07/15 01:31:08;;;;;;;5.83;2.33;;;;;;;14.60;72.45;100453.94;4981608;28;20231;-72
2022/07/15 01:33:34;;;;;;;2.03;1.57;;;;;;;14.58;73.06;100449.81;4966325;28;20332;-72
2022/07/15 01:36:00;;;;;;;4.07;2.10;;;;;;;14.52;73.28;100451.03;4968535;28;20236;-73
2022/07/15 01:38:28;;;;;;;3.63;2.40;;;;;;;14.49;73.68;100459.81;4959605;28;20246;-74
2022/07/15 01:40:54;;;;;;;3.47;2.20;;;;;;;14.51;73.51;100460.56;4966044;28;20231;-74
2022/07/15 01:43:20;;;;;;;3.40;2.10;;;;;;;14.39;74.30;100448.44;4989184;28;20168;-75
2022/07/15 01:45:46;;;;;;;3.57;1.77;;;;;;;14.38;74.34;100454.53;4983241;28;20186;-74
2022/07/15 01:50:59;;;;;;;4.57;2.10;;;;;;;14.44;74.96;100448.94;4969891;28;20242;-75
2022/07/15 01:53:28;;;;;;;2.63;1.83;;;;;;;14.49;74.49;100446.88;4989219;28;20290;-73
2022/07/15 01:55:54;;;;;;;3.50;1.63;;;;;;;14.50;74.51;100453.72;4989075;28;20219;-73
2022/07/15 01:58:20;;;;;;;3.77;1.70;;;;;;;14.57;74.20;100458.50;4969545;28;20176;-74
2022/07/15 02:00:46;;;;;;;3.87;1.50;;;;;;;14.56;73.84;100460.25;4974277;28;20250;-73
2022/07/15 02:03:11;;;;;;;3.83;2.00;;;;;;;14.58;74.27;100455.81;4988762;28;20631;-73
2022/07/15 02:05:37;;;;;;;3.17;1.67;;;;;;;14.57;74.02;100461.91;4972274;28;20184;-72
2022/07/15 02:08:04;;;;;;;3.43;2.27;;;;;;;14.48;75.09;100455.56;4988520;28;20347;-74
2022/07/15 02:10:39;;;;;;;6.27;2.10;;;;;;;14.38;75.98;100456.28;4962097;28;20232;-73
2022/07/15 02:13:06;;;;;;;6.07;2.27;;;;;;;14.42;75.63;100450.78;4986685;28;20230;-73
2022/07/15 02:15:31;;;;;;;3.73;2.00;;;;;;;14.35;76.27;100455.56;4988873;28;20184;-74
2022/07/15 02:17:57;;;;;;;5.70;1.80;;;;;;;14.39;76.15;100455.34;4973615;28;20334;-74
2022/07/15 02:20:22;;;;;;;5.03;2.10;;;;;;;14.45;75.95;100450.63;4961364;28;20743;-73
2022/07/15 02:22:47;;;;;;;4.03;1.73;;;;;;;14.38;76.45;100453.72;4963317;28;20181;-73
2022/07/15 02:25:12;;;;;;;2.63;1.63;;;;;;;14.27;77.42;100449.22;4973362;28;20191;-73
2022/07/15 02:27:38;;;;;;;3.97;1.90;;;;;;;14.25;78.16;100451.06;4974035;28;20267;-73
2022/07/15 02:30:04;;;;;;;2.83;2.30;;;;;;;14.23;78.14;100448.59;4959013;28;20208;-72
2022/07/15 02:32:29;;;;;;;3.90;1.93;;;;;;;14.11;79.09;100446.78;4967728;28;20545;-72
2022/07/15 02:34:54;;;;;;;4.23;2.10;;;;;;;13.91;81.18;100450.63;4960462;28;20188;-73
2022/07/15 02:37:20;;;;;;;4.00;1.87;;;;;;;13.84;82.25;100452.75;4973607;28;20266;-74
2022/07/15 02:39:45;;;;;;;3.67;2.20;;;;;;;13.88;82.43;100449.06;4971773;28;20619;-74
2022/07/15 02:42:10;;;;;;;2.60;1.90;;;;;;;13.88;82.33;100449.91;4978426;28;20215;-74
2022/07/15 02:44:36;;;;;;;4.10;2.30;;;;;;;13.99;81.89;100450.97;4972143;28;20630;-74
2022/07/15 02:47:01;;;;;;;4.10;2.10;;;;;;;14.00;82.33;100456.06;4973484;28;20254;-74
2022/07/15 02:49:27;;;;;;;6.10;2.23;;;;;;;13.99;82.22;100458.72;4973148;28;20195;-74
2022/07/15 02:51:52;;;;;;;4.63;2.33;;;;;;;14.06;82.17;100461.78;4977216;28;20251;-74
2022/07/15 02:54:17;;;;;;;4.90;2.20;;;;;;;14.01;82.04;100464.63;4974645;28;20270;-74
2022/07/15 02:56:43;;;;;;;3.90;2.20;;;;;;;14.09;81.07;100470.16;4973073;28;20176;-74
2022/07/15 02:59:09;;;;;;;6.23;2.10;;;;;;;14.18;80.46;100469.56;4987721;28;20214;-74
2022/07/15 03:01:34;;;;;;;4.17;2.17;;;;;;;14.25;79.97;100467.44;4964831;28;20227;-75
2022/07/15 03:04:00;;;;;;;4.47;2.03;;;;;;;14.35;79.44;100475.41;4971950;28;20662;-74
2022/07/15 03:06:25;;;;;;;6.77;2.13;;;;;;;14.44;78.54;100477.41;4973060;28;20190;-73
2022/07/15 03:08:51;;;;;;;3.50;1.93;;;;;;;14.55;77.70;100473.28;4987677;28;20626;-74
2022/07/15 03:11:16;;;;;;;4.47;2.30;;;;;;;14.60;77.32;100479.00;4965334;28;20275;-75
2022/07/15 03:13:41;;;;;;;5.60;2.30;;;;;;;14.68;76.15;100481.94;4978945;28;20187;-75
2022/07/15 03:16:07;;;;;;;4.93;2.83;;;;;;;14.65;75.93;100483.00;4956950;28;20220;-74
2022/07/15 03:18:32;;;;;;;5.07;2.13;;;;;;;14.69;75.20;100489.59;4985171;28;20650;-74
2022/07/15 03:20:57;;;;;;;4.07;2.20;;;;;;;14.71;74.81;100491.28;4952246;28;20223;-75
2022/07/15 03:23:22;;;;;;;5.80;1.93;;;;;;;14.77;74.52;100486.53;4977290;28;20184;-75
2022/07/15 03:25:48;;;;;;;4.23;1.87;;;;;;;14.91;73.60;100489.94;4975738;28;20198;-75
2022/07/15 03:28:13;;;;;;;2.80;2.13;;;;;;;15.08;72.65;100494.00;4975147;28;20212;-74
2022/07/15 03:30:38;;;;;;;3.07;1.90;;;;;;;15.17;72.57;100493.41;4946024;28;20240;-75
2022/07/15 03:33:04;;;;;;;3.10;2.07;;;;;;;15.25;71.87;100492.88;4968010;28;20822;-75
2022/07/15 03:35:29;;;;;;;4.57;1.83;;;;;;;15.26;71.30;100497.13;4982214;28;20286;-74
2022/07/15 03:37:54;;;;;;;4.10;2.00;;;;;;;15.22;70.32;100500.84;4977112;28;20182;-74
2022/07/15 03:40:20;;;;;;;4.00;1.97;;;;;;;15.35;70.47;100495.69;4966937;28;20184;-75
2022/07/15 03:42:45;;;;;;;3.17;1.63;;;;;;;15.46;70.06;100500.94;4975609;28;20267;-74
2022/07/15 03:45:11;;;;;;;7.33;2.30;;;;;;;15.39;70.08;100507.47;4976680;28;20180;-74
2022/07/15 03:47:36;;;;;;;4.67;2.00;;;;;;;15.48;70.32;100505.09;4975583;28;20190;-74
2022/07/15 03:50:02;;;;;;;2.03;1.83;;;;;;;15.55;69.36;100507.25;4975642;28;20232;-74
2022/07/15 03:52:27;;;;;;;4.43;2.10;;;;;;;15.59;68.36;100508.69;4965870;28;20220;-75
2022/07/15 03:54:52;;;;;;;4.30;2.37;;;;;;;15.54;68.84;100511.63;4975697;28;20275;-75
2022/07/15 03:57:17;;;;;;;4.50;2.13;;;;;;;15.62;68.72;100511.09;4976659;28;20184;-75
2022/07/15 03:59:44;;;;;;;3.70;2.00;;;;;;;15.73;68.79;100520.72;4974638;28;20184;-74
2022/07/15 04:02:09;;;;;;;4.40;1.70;;;;;;;15.60;69.25;100519.00;4981405;28;20346;-75
2022/07/15 04:04:35;;;;;;;8.17;2.20;;;;;;;15.62;69.03;100514.50;4975207;28;20188;-75
2022/07/15 04:07:00;;;;;;;4.07;1.80;;;;;;;15.64;69.39;100517.84;4974899;28;20228;-75
2022/07/15 04:09:25;;;;;;;3.33;1.93;;;;;;;15.73;68.59;100518.94;4975595;28;20184;-75
2022/07/15 04:11:51;;;;;;;5.10;2.60;;;;;;;15.62;69.30;100522.28;4976946;28;20230;-64
2022/07/15 04:14:17;;;;;;;5.23;2.07;;;;;;;15.55;69.77;100528.81;4973637;28;20717;-64
2022/07/15 04:16:43;;;;;;;7.37;1.77;;;;;;;15.71;69.50;100520.00;4973899;28;20180;-64
2022/07/15 04:19:09;;;;;;;2.30;1.90;;;;;;;15.67;69.59;100534.13;4974956;28;20218;-64
2022/07/15 04:21:34;;;;;;;5.57;1.83;;;;;;;15.77;69.36;100528.16;4974144;28;20222;-64
2022/07/15 04:24:00;;;;;;;3.20;1.80;;;;;;;15.78;69.72;100527.25;4964815;28;20259;-64
2022/07/15 04:26:25;;;;;;;3.57;2.10;;;;;;;15.81;69.83;100526.19;4968797;28;20649;-63
2022/07/15 04:28:50;;;;;;;3.30;1.60;;;;;;;15.87;68.98;100533.56;4974910;28;20655;-63
2022/07/15 04:31:16;;;;;;;3.80;2.23;;;;;;;16.03;69.01;100533.34;4964110;28;20224;-63
2022/07/15 04:33:41;;;;;;;4.17;1.93;;;;;;;16.06;67.82;100527.09;4963758;28;20328;-63
2022/07/15 04:36:07;;;;;;;3.37;1.87;;;;;;;16.35;67.46;100519.81;4975332;28;20196;-63
2022/07/15 04:38:32;;;;;;;3.47;1.47;;;;;;;16.60;66.54;100526.66;4975166;28;20662;-63
2022/07/15 04:40:57;;;;;;;4.80;2.13;;;;;;;16.45;64.75;100531.19;4972441;28;20227;-63
2022/07/15 04:43:24;;;;;;;4.20;1.90;;;;;;;16.38;64.60;100529.97;4983345;28;20187;-63
2022/07/15 04:45:50;;;;;;;8.57;2.20;;;;;;;16.44;64.34;100528.72;4975167;28;20259;-63
2022/07/15 04:50:59;;;;;;;13.17;2.37;;;;;;;16.85;63.07;100531.81;4972509;28;20305;-63
2022/07/15 04:53:25;;;;;;;10.23;2.43;;;;;;;17.03;62.19;100535.69;4990060;28;20180;-63
2022/07/15 04:55:50;;;;;;;6.30;2.03;;;;;;;17.15;60.72;100540.88;4975227;28;20327;-64
2022/07/15 04:58:16;;;;;;;7.33;1.70;;;;;;;17.31;60.59;100543.16;4973363;28;20178;-64
2022/07/15 05:00:45;;;;;;;6.47;1.97;;;;;;;17.46;60.54;100536.78;4966404;28;20314;-64
2022/07/15 05:03:11;;;;;;;4.20;1.70;;;;;;;17.68;59.17;100538.56;4984537;28;20200;-64
2022/07/15 05:05:36;;;;;;;3.60;1.37;;;;;;;17.76;58.39;100543.16;4973338;28;20191;-64
2022/07/15 05:08:02;;;;;;;4.40;1.87;;;;;;;17.69;58.80;100548.03;4974698;28;20682;-63
2022/07/15 05:10:27;;;;;;;3.63;1.90;;;;;;;17.94;58.80;100543.53;4965868;28;20223;-63
2022/07/15 05:12:53;;;;;;;4.80;2.10;;;;;;;17.97;57.77;100547.66;4973267;28;20207;-63
2022/07/15 05:15:18;;;;;;;3.60;1.73;;;;;;;17.87;57.88;100550.13;4973453;28;20662;-64
2022/07/15 05:17:44;;;;;;;6.33;1.93;;;;;;;17.98;57.54;100555.34;4975088;28;20592;-64
2022/07/15 05:20:09;;;;;;;4.80;1.90;;;;;;;18.01;57.04;100549.91;4964981;28;20701;-64
2022/07/15 05:22:35;;;;;;;4.80;1.90;;;;;;;17.90;57.98;100555.09;4971091;28;20207;-63
2022/07/15 05:25:00;;;;;;;3.70;1.90;;;;;;;17.93;57.70;100557.47;4973300;28;20546;-63
2022/07/15 05:27:25;;;;;;;4.33;1.90;;;;;;;18.11;58.22;100557.81;4972949;28;20596;-64
2022/07/15 05:29:51;;;;;;;4.87;1.77;;;;;;;18.42;58.04;100560.59;4972850;28;20262;-64
2022/07/15 05:32:16;;;;;;;5.80;2.13;;;;;;;18.75;55.89;100564.00;4964454;28;20223;-63
2022/07/15 05:34:42;;;;;;;5.97;1.80;;;;;;;18.56;54.38;100567.28;4961161;28;20191;-64
2022/07/15 05:37:07;;;;;;;5.30;1.80;;;;;;;18.53;54.46;100559.69;4974416;28;20192;-64
2022/07/15 05:39:34;;;;;;;5.50;2.23;;;;;;;18.31;55.08;100563.22;4972941;28;20201;-63
2022/07/15 05:41:59;;;;;;;3.30;1.80;;;;;;;18.31;56.00;100568.44;4978706;28;20363;-64
2022/07/15 05:44:24;;;;;;;3.87;1.80;;;;;;;17.93;56.98;100575.69;4973124;28;20224;-64
2022/07/15 05:46:50;;;;;;;4.47;2.00;;;;;;;17.87;57.98;100574.41;4974047;28;20576;-64
2022/07/15 05:49:16;;;;;;;5.63;2.17;;;;;;;18.03;57.15;100579.22;4973793;28;20629;-64
2022/07/15 05:51:41;;;;;;;4.13;2.03;;;;;;;18.16;56.89;100568.69;4965807;28;20235;-64
2022/07/15 05:54:06;;;;;;;9.03;2.07;;;;;;;18.49;56.44;100573.94;4972501;28;20184;-64
2022/07/15 05:56:32;;;;;;;1.90;1.50;;;;;;;18.79;53.78;100572.38;4973754;28;20215;-64
2022/07/15 05:58:57;;;;;;;3.10;1.57;;;;;;;18.50;54.99;100576.41;4973678;28;20179;-64
2022/07/15 06:01:23;;;;;;;4.27;1.77;;;;;;;18.50;54.95;100580.81;4965139;28;20270;-64
2022/07/15 06:03:48;;;;;;;6.80;1.73;;;;;;;18.58;54.64;100588.00;4978549;28;20180;-63
2022/07/15 06:06:14;;;;;;;4.67;1.80;;;;;;;18.92;53.95;100580.09;4972223;28;20275;-64
2022/07/15 06:08:39;;;;;;;3.80;1.70;;;;;;;19.17;52.13;100584.06;4973180;28;20286;-64
2022/07/15 06:11:05;;;;;;;6.37;1.50;;;;;;;19.12;51.82;100589.66;4971526;28;20314;-65
2022/07/15 06:13:30;;;;;;;6.53;1.60;;;;;;;19.06;52.55;100594.56;4980961;28;20254;-64
2022/07/15 06:15:55;;;;;;;6.23;1.60;;;;;;;19.35;51.12;100595.59;4972400;28;20267;-64
2022/07/15 06:18:21;;;;;;;4.20;1.37;;;;;;;19.56;50.60;100601.72;4973781;28;20188;-64
2022/07/15 06:20:47;;;;;;;3.83;1.70;;;;;;;19.60;50.17;100600.53;4960079;28;20306;-64
2022/07/15 06:23:12;;;;;;;4.93;1.73;;;;;;;19.57;49.96;100587.72;4975968;28;20188;-65
2022/07/15 06:25:37;;;;;;;5.10;1.70;;;;;;;20.01;49.87;100598.78;4967446;28;20283;-64
2022/07/15 06:28:03;;;;;;;6.17;1.70;;;;;;;20.29;48.15;100591.13;4973841;28;20199;-64
2022/07/15 06:30:28;;;;;;;2.17;1.33;;;;;;;20.67;46.93;100599.16;4968444;28;20227;-64
2022/07/15 06:32:54;;;;;;;6.10;1.60;;;;;;;20.43;47.94;100593.38;4969277;28;20569;-64
2022/07/15 06:35:19;;;;;;;3.27;1.30;;;;;;;20.14;48.27;100590.69;4974061;28;20651;-64
2022/07/15 06:37:46;;;;;;;3.83;1.80;;;;;;;19.94;49.08;100595.03;4974006;28;20172;-64
2022/07/15 06:40:11;;;;;;;4.07;1.70;;;;;;;19.70;49.80;100593.56;4965082;28;20231;-65
2022/07/15 06:42:38;;;;;;;4.40;1.87;;;;;;;19.92;49.62;100596.94;4986753;28;20184;-64
2022/07/15 06:45:05;;;;;;;2.17;1.57;;;;;;;20.62;48.13;100589.13;4975773;28;20215;-64
2022/07/15 06:47:30;;;;;;;2.70;1.60;;;;;;;22.12;44.05;100585.03;4972896;28;20195;-64
2022/07/15 06:49:55;;;;;;;7.30;1.43;;;;;;;;;;4970948;28;20204;-65
2022/07/15 06:52:20;;;;;;;6.57;2.17;;;;;;;22.94;40.13;100588.41;4955424;28;20259;-57
2022/07/15 06:54:45;;;;;;;4.53;1.97;;;;;;;22.23;42.02;100595.31;4981975;28;20191;-57
2022/07/15 06:57:12;;;;;;;5.33;1.57;;;;;;;22.10;42.14;100590.41;4970549;28;20180;-58
2022/07/15 06:59:38;;;;;;;4.70;1.43;;;;;;;21.79;42.74;100595.94;4973925;28;20187;-58
2022/07/15 07:02:03;;;;;;;4.77;1.57;;;;;;;21.25;43.93;100593.06;4969217;28;20231;-57
2022/07/15 07:04:29;;;;;;;4.70;1.90;;;;;;;21.28;44.86;100593.63;4975874;28;20266;-57
2022/07/15 07:06:54;;;;;;;6.30;1.53;;;;;;;21.42;44.91;100592.34;4972400;28;20236;-58
2022/07/15 07:09:19;;;;;;;4.30;1.47;;;;;;;21.90;43.76;100589.69;4973263;28;20178;-59
2022/07/15 07:11:45;;;;;;;2.77;1.63;;;;;;;22.16;43.18;100594.25;4975298;28;20246;-59
2022/07/15 07:14:11;;;;;;;2.73;1.43;;;;;;;21.75;43.88;100605.88;4967940;28;20194;-57
2022/07/15 07:16:36;;;;;;;4.70;1.60;;;;;;;22.05;43.94;100606.56;4978198;28;20215;-60
2022/07/15 07:19:02;;;;;;;5.30;2.07;;;;;;;23.45;40.77;100608.78;4974550;28;20192;-58
2022/07/15 07:21:27;;;;;;;3.87;1.63;;;;;;;23.91;38.27;100608.50;4979064;28;20572;-58
2022/07/15 07:23:52;;;;;;;5.60;2.20;;;;;;;23.32;39.73;100604.78;4975517;28;20188;-58
2022/07/15 07:26:18;;;;;;;4.83;1.60;;;;;;;23.15;41.05;100608.25;4975456;28;20232;-58
2022/07/15 07:28:44;;;;;;;6.47;1.97;;;;;;;24.20;38.69;100605.50;4970420;28;20274;-60
2022/07/15 07:31:11;;;;;;;4.97;1.42;;;;;;;24.55;37.16;100611.47;4949486;28;20278;-59
2022/07/15 07:33:38;;;;;;;6.78;1.63;;;;;;;24.54;37.50;100612.44;4971540;28;20220;-58
2022/07/15 07:36:05;;;;;;;3.70;1.65;;;;;;;23.29;39.59;100614.75;4982276;28;20217;-58
2022/07/15 07:38:32;;;;;;;3.43;1.30;;;;;;;21.82;42.80;100619.22;4987509;28;20191;-58
2022/07/15 07:40:58;;;;;;;4.70;1.50;;;;;;;21.52;44.28;100608.00;4980050;28;20293;-57
2022/07/15 07:43:23;;;;;;;3.93;1.67;;;;;;;20.91;45.84;100603.97;4987470;28;20542;-57
2022/07/15 07:45:50;;;;;;;2.53;1.43;;;;;;;20.92;46.37;100609.06;4972666;28;20193;-57
2022/07/15 07:48:16;;;;;;;3.30;1.67;;;;;;;21.11;45.85;100607.41;4972206;28;20315;-57
2022/07/15 07:50:43;;;;;;;4.97;1.67;;;;;;;22.30;43.29;100601.59;4979937;28;20232;-56
2022/07/15 07:53:09;;;;;;;7.70;1.83;;;;;;;23.58;40.21;100597.84;4971122;28;20255;-57
2022/07/15 07:55:35;;;;;;;3.20;1.73;;;;;;;23.52;39.73;100601.94;4971130;28;20313;-57
2022/07/15 07:58:01;;;;;;;4.43;1.60;;;;;;;24.01;38.02;100602.16;4970551;28;20204;-58
2022/07/15 08:00:28;;;;;;;4.80;1.90;;;;;;;23.59;40.00;100602.97;4969447;28;20293;-57
2022/07/15 08:02:55;;;;;;;8.25;2.05;;;;;;;25.25;36.92;100602.22;4975048;28;20186;-57
2022/07/15 08:05:21;;;;;;;6.65;1.75;;;;;;;24.86;36.87;100610.84;4970949;28;20211;-57
2022/07/15 08:07:47;;;;;;;12.38;2.22;;;;;;;24.65;37.18;100601.63;4975969;28;20263;-57
2022/07/15 08:10:14;;;;;;;7.93;1.88;;;;;;;26.29;34.71;100613.75;4966928;28;20215;-58
2022/07/15 08:12:39;;;;;;;3.90;1.50;;;;;;;27.00;32.78;100611.72;4971616;28;20248;-61
2022/07/15 08:15:07;;;;;;;8.45;1.67;;;;;;;28.14;30.97;100610.59;4972427;28;20636;-58
2022/07/15 08:17:32;;;;;;;5.00;1.90;;;;;;;27.46;32.10;100616.06;4979705;28;20707;-57
2022/07/15 08:19:58;;;;;;;5.60;1.48;;;;;;;28.30;31.24;100606.91;4986591;28;20323;-58
2022/07/15 08:22:23;;;;;;;7.95;1.95;;;;;;;30.19;28.28;100617.72;4980672;28;20366;-59
2022/07/15 08:24:51;;;;;;;6.95;1.77;;;;;;;30.54;26.89;100622.03;4975794;28;20219;-58
2022/07/15 08:27:18;;;;;;;6.80;1.95;;;;;;;29.57;27.74;100616.84;4975620;28;20180;-59
2022/07/15 08:29:44;;;;;;;3.40;1.70;;;;;;;27.50;30.61;100611.22;4975511;28;20720;-58
2022/07/15 08:32:09;;;;;;;4.70;1.85;;;;;;;26.67;32.48;100613.78;4980062;28;20227;-59
2022/07/15 08:34:35;;;;;;;4.25;1.85;;;;;;;25.73;34.40;100615.47;4968940;28;20279;-56
2022/07/15 08:37:00;;;;;;;3.17;1.58;;;;;;;25.17;35.07;100612.78;4979333;28;20179;-58
2022/07/15 08:39:25;;;;;;;4.28;2.00;;;;;;;23.87;37.83;100612.44;4988557;28;20186;-58
2022/07/15 08:41:52;;;;;;;4.45;1.77;;;;;;;23.13;39.36;100621.50;4989983;28;20226;-57
2022/07/15 08:44:17;;;;;;;4.35;2.08;;;;;;;23.99;37.71;100603.31;4989054;28;20284;-57
2022/07/15 08:46:47;;;;;;;9.60;2.15;;;;;;;24.54;36.10;100609.00;4975744;28;20184;-58
2022/07/15 08:49:18;;;;;;;6.57;1.90;;;;;;;24.65;35.91;100606.88;4983859;28;20207;-57
2022/07/15 08:51:46;;;;;;;8.82;2.53;;;;;;;24.08;35.38;100604.97;4976195;28;20242;-57
2022/07/15 08:54:13;;;;;;;3.35;2.35;;;;;;;23.74;35.85;100608.44;4988071;28;20182;-57
2022/07/15 08:56:38;;;;;;;4.07;2.47;;;;;;;26.40;32.62;100608.88;4987138;28;20822;-56
2022/07/15 08:59:05;;;;;;;4.30;2.20;;;;;;;28.06;28.99;100609.91;4987452;28;20298;-57
2022/07/15 09:01:33;;;;;;;4.72;2.40;;;;;;;26.55;30.35;100618.66;4978784;28;20235;-56
2022/07/15 09:03:59;;;;;;;4.32;2.50;;;;;;;25.04;32.83;100615.09;4985328;28;20184;-58
2022/07/15 09:06:44;;;;;;;5.38;2.65;;;;;;;24.18;35.14;100616.16;4982070;28;20678;-58
2022/07/15 09:09:28;;;;;;;6.35;2.90;;;;;;;24.23;34.46;100604.34;4981588;28;20187;-58
2022/07/15 09:12:08;;;;;;;5.03;2.55;;;;;;;23.82;35.57;100605.81;4991938;28;20230;-59
2022/07/15 09:14:36;;;;;;;6.40;2.67;;;;;;;23.16;37.99;100615.16;4977417;28;20179;-57
2022/07/15 09:17:10;;;;;;;4.60;2.97;;;;;;;22.38;38.72;100614.00;4988126;28;20270;-57
2022/07/15 09:20:04;;;;;;;4.03;2.70;;;;;;;22.22;39.57;100610.19;4977143;28;20175;-57
2022/07/15 09:22:56;;;;;;;5.13;2.80;;;;;;;23.96;35.87;100609.69;4958097;28;20219;-57
2022/07/15 09:25:22;;;;;;;4.23;2.23;;;;;;;25.11;33.33;100613.47;4989218;28;20183;-58
2022/07/15 09:27:49;;;;;;;4.33;2.93;;;;;;;24.58;34.72;100613.75;4986005;28;20188;-57
2022/07/15 09:36:07;;;;;;;3.35;2.30;;;;;;;25.69;33.02;100622.06;4977057;28;20530;-58
2022/07/15 09:38:32;;;;;;;5.45;2.50;;;;;;;27.20;31.10;100609.38;4971185;28;20227;-64
2022/07/15 09:40:59;;;;;;;4.72;2.72;;;;;;;28.12;28.79;100617.91;4972781;28;20251;-57
2022/07/15 09:43:24;;;;;;;3.78;2.40;;;;;;;28.28;27.96;100616.03;4986054;28;20188;-57
2022/07/15 09:45:59;;;;;;;4.40;2.10;;;;;;;29.58;27.11;100626.44;4974552;28;20184;-57
2022/07/15 09:48:28;;;;;;;3.72;2.20;;;;;;;30.93;24.99;100632.88;4977937;28;20199;-58
2022/07/15 09:50:59;;;;;;;4.50;2.50;;;;;;;27.56;28.63;100628.97;4964408;28;20426;-56
2022/07/15 09:53:24;;;;;;;6.80;1.90;;;;;;;28.00;28.86;100622.03;4961551;28;20194;-57
2022/07/15 09:55:50;;;;;;;3.45;2.17;;;;;;;29.98;27.02;100618.69;4976513;28;20535;-58
2022/07/15 09:58:17;;;;;;;3.78;2.00;;;;;;;32.32;23.07;100617.50;4977373;28;20661;-58
2022/07/15 10:00:42;;;;;;;5.05;2.38;;;;;;;34.40;21.86;100622.47;4950334;28;20229;-58
2022/07/15 10:03:08;;;;;;;3.13;1.90;;;;;;;32.79;21.91;100625.13;4975741;28;20596;-57
2022/07/15 10:05:37;;;;;;;2.45;1.85;;;;;;;30.18;24.81;100628.50;4975460;28;20186;-58
2022/07/15 10:08:04;;;;;;;6.68;2.75;;;;;;;28.17;27.99;100612.06;4975251;28;20291;-58
2022/07/15 10:10:32;;;;;;;6.30;2.05;;;;;;;26.61;29.95;100614.47;4959290;28;20810;-58
2022/07/15 10:13:35;;;;;;;4.63;2.30;;;;;;;28.18;28.22;100614.53;4970591;28;20267;-57
2022/07/15 10:16:10;;;;;;;3.70;2.40;;;;;;;27.16;28.80;100605.44;4976202;28;20192;-57
2022/07/15 10:18:51;;;;;;;3.28;2.13;;;;;;;27.50;28.96;100608.59;4973611;28;20566;-57
2022/07/15 10:21:38;;;;;;;5.35;2.53;;;;;;;27.53;27.86;100616.16;4964314;28;20222;-58
2022/07/15 10:24:43;;;;;;;7.88;2.75;;;;;;;25.72;30.56;100613.81;4988308;28;20191;-57
2022/07/15 10:27:43;;;;;;;3.83;2.10;;;;;;;25.72;31.29;100608.53;4940287;28;20200;-57
2022/07/15 10:30:10;;;;;;;3.42;2.08;;;;;;;25.37;31.94;100604.56;4963855;28;20231;-58
2022/07/15 10:33:03;;;;;;;2.92;2.35;;;;;;;25.18;32.62;100598.66;4984494;28;20210;-58
2022/07/15 10:35:45;;;;;;;5.43;2.00;;;;;;;24.09;34.22;100603.16;4963444;28;20605;-58
2022/07/15 10:38:24;;;;;;;4.25;2.25;;;;;;;23.68;35.38;100602.00;4987873;28;20209;-57
2022/07/15 10:41:06;;;;;;;5.93;2.67;;;;;;;23.14;36.17;100604.78;4961855;28;20243;-59
2022/07/15 10:43:53;;;;;;;3.43;2.13;;;;;;;23.15;36.25;100603.81;4977140;28;20598;-57
2022/07/15 10:46:21;;;;;;;5.57;2.53;;;;;;;23.28;36.07;100598.19;4960014;28;20176;-57
2022/07/15 10:48:59;;;;;;;4.47;2.40;;;;;;;24.11;35.15;100595.94;4984005;28;20183;-57
2022/07/15 10:51:37;;;;;;;5.57;2.27;;;;;;;24.88;33.73;100590.47;4980231;28;20250;-57
2022/07/15 10:54:18;;;;;;;3.63;1.97;;;;;;;24.59;32.82;100589.09;4982560;28;20615;-57
2022/07/15 10:56:47;;;;;;;3.67;2.47;;;;;;;24.70;33.65;100580.09;4974298;28;20540;-57
2022/07/15 10:59:20;;;;;;;5.22;2.25;;;;;;;25.05;33.72;100585.19;4973483;28;20586;-57
2022/07/15 11:02:10;;;;;;;3.20;2.77;;;;;;;25.08;32.09;100572.50;4947172;28;20221;-57
2022/07/15 11:04:36;;;;;;;4.32;2.58;;;;;;;25.32;31.42;100581.34;4974560;28;20196;-58
2022/07/15 11:07:01;;;;;;;3.00;1.88;;;;;;;25.51;32.05;100579.34;4970846;28;20294;-57
2022/07/15 11:09:46;;;;;;;6.47;2.30;;;;;;;25.19;32.64;100570.50;4973408;28;20203;-57
2022/07/15 11:12:12;;;;;;;6.93;2.53;;;;;;;25.70;31.77;100573.66;4978560;28;20282;-58
2022/07/15 11:14:57;;;;;;;2.85;2.40;;;;;;;25.67;30.30;100568.72;4969207;28;20267;-58
2022/07/15 11:17:38;;;;;;;4.10;2.15;;;;;;;25.55;31.72;100567.47;4960776;28;20226;-58
2022/07/15 11:20:16;;;;;;;3.67;2.08;;;;;;;25.71;31.17;100566.56;4963506;28;20188;-57
2022/07/15 11:22:44;;;;;;;6.32;2.00;;;;;;;25.77;31.37;100564.06;4983672;28;20282;-58
2022/07/15 11:25:29;;;;;;;4.68;2.05;;;;;;;25.12;32.38;100563.28;4990302;28;20648;-57
2022/07/15 11:28:12;;;;;;;2.30;1.85;;;;;;;24.36;33.11;100561.81;4981043;28;20195;-58
2022/07/15 11:30:43;;;;;;;4.47;2.20;;;;;;;23.91;33.94;100566.47;4932604;28;20238;-58
2022/07/15 11:33:15;;;;;;;4.40;1.70;;;;;;;24.09;33.55;100563.72;4953099;28;20187;-58
2022/07/15 11:35:47;;;;;;;3.70;2.20;;;;;;;23.74;34.22;100560.31;4979359;28;20180;-59
2022/07/15 11:38:12;;;;;;;5.10;2.40;;;;;;;23.73;34.98;100556.88;4968949;28;20251;-58
2022/07/15 11:46:16;;;;;;;3.73;2.03;;;;;;;24.74;31.70;100554.28;4978418;28;20226;-58